createdAt,value
2023-05-13T00:03:01.920Z,97090.47
2023-05-13T00:08:07.201Z,97089.66
2023-05-13T00:13:08.969Z,97093.22
2023-05-13T00:18:11.135Z,97093.22
2023-05-13T00:23:12.820Z,97097.34
2023-05-13T00:28:15.135Z,97093.78
2023-05-13T00:33:17.302Z,97088.84
2023-05-13T00:38:19.021Z,97090.50
2023-05-13T00:43:21.505Z,97093.81
2023-05-13T00:48:23.676Z,97089.97
2023-05-13T00:53:25.569Z,97093.81
2023-05-13T00:58:27.522Z,97093.25
2023-05-13T01:03:39.337Z,97094.34
2023-05-13T01:08:40.998Z,97092.97
2023-05-13T01:13:47.960Z,97091.59
2023-05-13T01:18:56.559Z,97098.19
2023-05-13T01:23:59.451Z,97094.63
2023-05-13T01:29:01.274Z,97097.63
2023-05-13T01:34:03.797Z,97093.78
2023-05-13T01:39:06.245Z,97086.09
2023-05-13T01:44:08.720Z,97092.13
2023-05-13T01:49:10.701Z,97097.06
2023-05-13T01:54:12.509Z,97096.50
2023-05-13T01:59:19.962Z,97105.00
2023-05-13T02:04:22.123Z,97102.53
2023-05-13T02:09:24.372Z,97103.09
2023-05-13T02:14:26.383Z,97103.66
2023-05-13T02:19:28.092Z,97105.31
2023-05-13T02:24:31.083Z,97111.63
2023-05-13T02:29:34.091Z,97100.38
2023-05-13T02:34:35.968Z,97103.09
2023-05-13T02:39:38.179Z,97096.53
2023-05-13T02:44:40.471Z,97093.78
2023-05-13T02:49:43.676Z,97092.69
2023-05-13T02:54:47.937Z,97097.66
2023-05-13T02:59:50.244Z,97104.19
2023-05-13T03:04:52.201Z,97101.22
2023-05-13T03:09:54.098Z,97112.72
2023-05-13T03:14:56.461Z,97109.13
2023-05-13T03:19:58.269Z,97102.31
2023-05-13T03:25:00.129Z,97105.59
2023-05-13T03:30:08.599Z,97104.22
2023-05-13T03:35:17.772Z,97109.44
2023-05-13T03:40:19.757Z,97111.88
2023-05-13T03:45:22.116Z,97111.88
2023-05-13T03:50:26.407Z,97116.28
2023-05-13T03:55:28.333Z,97115.44
2023-05-13T04:00:30.363Z,97123.94
2023-05-13T04:05:32.693Z,97124.75
2023-05-13T04:10:34.782Z,97134.91
2023-05-13T04:15:36.848Z,97132.69
2023-05-13T04:20:41.049Z,97137.09
2023-05-13T04:25:43.268Z,97141.47
2023-05-13T04:30:45.277Z,97140.63
2023-05-13T04:35:47.716Z,97150.22
2023-05-13T04:40:49.624Z,97151.34
2023-05-13T04:45:57.969Z,97152.41
2023-05-13T04:50:59.988Z,97153.50
2023-05-13T04:56:02.417Z,97160.09
2023-05-13T05:01:05.276Z,97168.84
2023-05-13T05:06:07.404Z,97161.75
2023-05-13T05:11:10.695Z,97166.69
2023-05-13T05:16:12.752Z,97171.88
2023-05-13T05:21:15.008Z,97180.94
2023-05-13T05:26:17.417Z,97189.16
2023-05-13T05:31:19.383Z,97181.50
2023-05-13T05:36:21.764Z,97178.75
2023-05-13T05:41:23.616Z,97194.94
2023-05-13T05:46:26.234Z,97188.91
2023-05-13T05:51:28.722Z,97188.34
2023-05-13T05:56:30.564Z,97192.47
2023-05-13T06:01:36.831Z,97198.50
2023-05-13T06:06:40.456Z,97192.19
2023-05-13T06:11:42.764Z,97196.03
2023-05-13T06:16:45.073Z,97194.66
2023-05-13T06:21:46.879Z,97195.25
2023-05-13T06:26:49.000Z,97201.28
2023-05-13T06:31:50.854Z,97200.19
2023-05-13T06:36:52.651Z,97204.56
2023-05-13T06:41:55.625Z,97201.25
2023-05-13T06:47:03.018Z,97199.91
2023-05-13T06:52:05.540Z,97213.91
2023-05-13T06:57:07.457Z,97215.53
2023-05-13T07:02:09.954Z,97212.78
2023-05-13T07:07:11.824Z,97213.06
2023-05-13T07:12:14.460Z,97218.81
2023-05-13T07:17:17.174Z,97212.50
2023-05-13T07:22:19.089Z,97208.38
2023-05-13T07:27:21.798Z,97210.00
2023-05-13T07:32:23.819Z,97213.31
2023-05-13T07:37:25.550Z,97227.56
2023-05-13T07:42:29.846Z,97222.34
2023-05-13T07:47:32.041Z,97220.41
2023-05-13T07:52:36.951Z,97223.09
2023-05-13T07:57:38.679Z,97222.00
2023-05-13T08:02:42.780Z,97217.91
2023-05-13T08:07:46.240Z,97227.53
2023-05-13T08:13:02.782Z,97231.91
2023-05-13T08:18:09.043Z,97220.09
2023-05-13T08:23:13.623Z,97220.91
2023-05-13T08:28:17.885Z,97235.19
2023-05-13T08:33:25.481Z,97234.66
2023-05-13T08:38:27.267Z,97233.53
2023-05-13T08:43:30.547Z,97239.81
2023-05-13T08:48:33.793Z,97243.91
2023-05-13T08:53:36.295Z,97243.31
2023-05-13T08:58:39.209Z,97245.53
2023-05-13T09:03:57.852Z,97246.59
2023-05-13T09:08:59.729Z,97251.25
2023-05-13T09:14:03.689Z,97248.28
2023-05-13T09:19:07.581Z,97248.81
2023-05-13T09:24:18.407Z,97248.00
2023-05-13T09:29:30.350Z,97245.78
2023-05-13T09:34:34.263Z,97253.72
2023-05-13T09:39:41.301Z,97250.97
2023-05-13T09:44:46.675Z,97249.31
2023-05-13T09:49:56.157Z,97245.41
2023-05-13T09:54:59.508Z,97245.94
2023-05-13T10:00:05.095Z,97245.09
2023-05-13T10:05:12.679Z,97247.00
2023-05-13T10:10:14.964Z,97253.34
2023-05-13T10:15:17.472Z,97240.94
2023-05-13T10:20:19.659Z,97249.16
2023-05-13T10:25:22.348Z,97250.22
2023-05-13T10:30:26.587Z,97239.16
2023-05-13T10:35:37.121Z,97239.69
2023-05-13T10:41:17.416Z,97240.75
2023-05-13T10:46:19.415Z,97237.97
2023-05-13T10:51:24.563Z,97235.69
2023-05-13T10:56:28.837Z,97235.75
2023-05-13T11:01:43.186Z,97238.06
2023-05-13T11:06:46.448Z,97234.97
2023-05-13T11:11:53.072Z,97228.94
2023-05-13T11:17:01.116Z,97222.69
2023-05-13T11:22:12.800Z,97218.69
2023-05-13T11:27:18.509Z,97227.81
2023-05-13T11:32:54.264Z,97224.88
2023-05-13T11:37:59.834Z,97235.91
2023-05-13T11:43:02.411Z,97236.78
2023-05-13T11:48:22.082Z,97240.50
2023-05-13T11:53:23.864Z,97238.63
2023-05-13T11:58:25.829Z,97229.81
2023-05-13T12:03:28.320Z,97233.13
2023-05-13T12:08:30.466Z,97243.88
2023-05-13T12:13:32.285Z,97248.81
2023-05-13T12:18:34.524Z,97249.97
2023-05-13T12:23:40.813Z,97248.81
2023-05-13T12:28:42.746Z,97253.03
2023-05-13T12:33:47.275Z,97260.00
2023-05-13T12:39:00.710Z,97252.88
2023-05-13T12:44:10.988Z,97244.59
2023-05-13T12:49:15.048Z,97247.31
2023-05-13T12:54:17.262Z,97246.72
2023-05-13T12:59:19.331Z,97246.47
2023-05-13T13:04:21.105Z,97239.63
2023-05-13T13:09:22.995Z,97233.00
2023-05-13T13:14:26.107Z,97237.06
2023-05-13T13:19:27.860Z,97240.53
2023-05-13T13:24:29.997Z,97236.00
2023-05-13T13:29:32.336Z,97226.06
2023-05-13T13:34:34.096Z,97237.53
2023-05-13T13:39:35.860Z,97229.72
2023-05-13T13:44:39.444Z,97224.19
2023-05-13T13:49:41.288Z,97226.84
2023-05-13T13:54:43.087Z,97220.16
2023-05-13T13:59:44.786Z,97218.88
2023-05-13T14:04:46.528Z,97227.59
2023-05-13T14:09:50.021Z,97221.41
2023-05-13T14:14:51.839Z,97207.59
2023-05-13T14:19:55.398Z,97210.44
2023-05-13T14:24:58.920Z,97205.22
2023-05-13T14:30:00.971Z,97207.59
2023-05-13T14:35:02.680Z,97209.25
2023-05-13T14:40:04.886Z,97200.97
2023-05-13T14:45:07.327Z,97195.53
2023-05-13T14:50:09.177Z,97196.13
2023-05-13T14:55:11.299Z,97194.28
2023-05-13T15:00:14.161Z,97185.53
2023-05-13T15:05:16.043Z,97184.09
2023-05-13T15:10:17.864Z,97177.47
2023-05-13T15:15:20.063Z,97178.81
2023-05-13T15:20:24.367Z,97173.13
2023-05-13T15:25:26.320Z,97173.66
2023-05-13T15:30:28.826Z,97170.16
2023-05-13T15:35:30.586Z,97168.91
2023-05-13T15:40:34.388Z,97169.50
2023-05-13T15:45:36.417Z,97157.34
2023-05-13T15:50:38.241Z,97153.13
2023-05-13T15:55:40.196Z,97145.91
2023-05-13T16:00:42.115Z,97152.69
2023-05-13T16:05:44.074Z,97150.88
2023-05-13T16:10:45.820Z,97141.38
2023-05-13T16:15:47.568Z,97139.41
2023-05-13T16:20:51.419Z,97137.59
2023-05-13T16:25:53.639Z,97137.81
2023-05-13T16:30:57.306Z,97139.03
2023-05-13T16:36:00.276Z,97129.00
2023-05-13T16:41:01.936Z,97129.63
2023-05-13T16:46:04.086Z,97131.97
2023-05-13T16:51:05.785Z,97134.72
2023-05-13T16:56:07.608Z,97136.16
2023-05-13T17:01:09.525Z,97134.31
2023-05-13T17:06:13.112Z,97128.66
2023-05-13T17:11:17.964Z,97131.81
2023-05-13T17:16:19.694Z,97136.28
2023-05-13T17:21:22.385Z,97136.88
2023-05-13T17:26:24.377Z,97131.47
2023-05-13T17:31:27.398Z,97125.00
2023-05-13T17:36:29.312Z,97136.03
2023-05-13T17:41:31.329Z,97129.38
2023-05-13T17:46:33.053Z,97135.81
2023-05-13T17:51:34.741Z,97137.25
2023-05-13T17:56:36.403Z,97138.94
2023-05-13T18:01:38.475Z,97137.09
2023-05-13T18:06:40.227Z,97149.00
2023-05-13T18:11:41.923Z,97140.19
2023-05-13T18:16:43.944Z,97152.66
2023-05-13T18:21:46.637Z,97151.59
2023-05-13T18:26:48.435Z,97154.75
2023-05-13T18:31:50.160Z,97151.47
2023-05-13T18:36:52.493Z,97159.19
2023-05-13T18:41:54.277Z,97168.06
2023-05-13T18:46:56.014Z,97162.09
2023-05-13T18:51:57.927Z,97173.28
2023-05-13T18:57:00.450Z,97175.84
2023-05-13T19:02:02.330Z,97180.09
2023-05-13T19:07:04.423Z,97182.63
2023-05-13T19:12:07.520Z,97186.28
2023-05-13T19:17:09.308Z,97201.22
2023-05-13T19:22:11.091Z,97220.56
2023-05-13T19:27:12.897Z,97219.50
2023-05-13T19:32:15.205Z,97222.31
2023-05-13T19:37:17.036Z,97224.47
2023-05-13T19:42:19.002Z,97227.19
2023-05-13T19:47:21.148Z,97233.56
2023-05-13T19:52:22.824Z,97239.25
2023-05-13T19:57:24.499Z,97233.16
2023-05-13T20:02:26.787Z,97228.94
2023-05-13T20:07:29.172Z,97220.81
2023-05-13T20:12:31.575Z,97223.59
2023-05-13T20:17:33.407Z,97226.91
2023-05-13T20:22:35.266Z,97225.81
2023-05-13T20:27:37.166Z,97227.25
2023-05-13T20:32:39.124Z,97230.63
2023-05-13T20:37:40.869Z,97218.88
2023-05-13T20:42:42.679Z,97225.28
2023-05-13T20:47:44.842Z,97224.47
2023-05-13T20:52:47.007Z,97215.72
2023-05-13T20:57:50.435Z,97204.16
2023-05-13T21:02:53.529Z,97206.91
2023-05-13T21:07:55.538Z,97202.00
2023-05-13T21:12:57.260Z,97202.56
2023-05-13T21:17:59.539Z,97193.72
2023-05-13T21:23:01.408Z,97188.50
2023-05-13T21:28:03.808Z,97178.31
2023-05-13T21:33:05.655Z,97182.16
2023-05-13T21:38:12.173Z,97178.81
2023-05-13T21:43:14.488Z,97178.31
2023-05-13T21:48:16.602Z,97169.56
2023-05-13T21:53:18.406Z,97167.41
2023-05-13T21:58:21.916Z,97172.94
2023-05-13T22:03:26.341Z,97164.75
2023-05-13T22:08:29.420Z,97163.69
2023-05-13T22:13:31.630Z,97165.97
2023-05-13T22:18:33.649Z,97165.72
2023-05-13T22:23:35.772Z,97162.69
2023-05-13T22:28:37.479Z,97164.44
2023-05-13T22:33:39.345Z,97161.72
2023-05-13T22:38:42.082Z,97157.88
2023-05-13T22:43:43.982Z,97165.53
2023-05-13T22:48:46.074Z,97164.75
2023-05-13T22:53:48.063Z,97157.31
2023-05-13T22:58:49.801Z,97159.50
2023-05-13T23:03:52.239Z,97151.56
2023-05-13T23:08:54.032Z,97149.66
2023-05-13T23:13:55.789Z,97146.91
2023-05-13T23:18:58.032Z,97144.47
2023-05-13T23:23:59.961Z,97143.91
2023-05-13T23:29:02.279Z,97146.38
2023-05-13T23:34:04.466Z,97148.31
2023-05-13T23:39:06.299Z,97148.63
2023-05-13T23:44:08.016Z,97156.03
2023-05-13T23:49:09.862Z,97151.91
2023-05-13T23:54:11.764Z,97145.88
2023-05-13T23:59:13.485Z,97144.25
